M I D A S
Marine Information and Data Acquisition System
Tripno 2098 of the Zeeleeuw from 2011-05-09 07:32:46 to 2011-05-09 14:36:38
Back to CruiseResearch ActivitiesStationsMapUnderway DataData graphs

EquipmentUnitsComment
TimeDGPSUTC
LatitudeDGPSDM.mWGS84
LongitudeDGPSDM.mWGS84
HeadingGyrodeg 
SOGDGPSknotsSpeed over ground
COGDGPSdegCourse over ground
DepthEcho soundermeters200 kHz
Missing or incorrect values are displayed as -999
Navigation data collected by the RV Zeeleeuw from 2011-05-09 07:16:12 to 2011-05-09 14:47:01
Time Latitude Longitude Heading SOG COG Depth
2011-05-09 07:17:18 51°13.661 2°55.959 131.7 0.1 165 8.2
2011-05-09 07:18:17 51°13.66 2°55.961 116.3 0.1 210 7.9
2011-05-09 07:19:17 51°13.662 2°55.952 110.3 1.6 295 8.5
2011-05-09 07:20:21 51°13.681 2°55.87 105.1 3.9 287 -999
2011-05-09 07:21:21 51°13.693 2°55.772 86.9 3.3 273 -999
2011-05-09 07:22:20 51°13.703 2°55.746 35.4 1.6 9 12.8
2011-05-09 07:23:19 51°13.752 2°55.714 329 5.4 326 11.7
2011-05-09 07:24:18 51°13.862 2°55.615 334.9 9 334 11.4
2011-05-09 07:25:18 51°14.004 2°55.509 336.2 9.6 335 11.1
2011-05-09 07:26:19 51°14.151 2°55.4 337.5 9.6 335 10.9
2011-05-09 07:27:18 51°14.287 2°55.27 329.6 10 328 10.9
2011-05-09 07:28:18 51°14.436 2°55.128 331.8 10.6 331 10.9
2011-05-09 07:29:18 51°14.588 2°54.968 321.5 11.3 315 12
2011-05-09 07:30:18 51°14.648 2°54.683 268.5 12.1 262 11.5
2011-05-09 07:31:17 51°14.545 2°54.409 231 12.8 230 10.3
2011-05-09 07:32:17 51°14.419 2°54.126 240 13 240 9.7
2011-05-09 07:33:17 51°14.318 2°53.822 242.5 13 241 9.7
2011-05-09 07:34:18 51°14.198 2°53.526 234.9 13.1 234 9.8
2011-05-09 07:35:18 51°14.08 2°53.235 241.7 13.1 241 10.1
2011-05-09 07:36:18 51°13.977 2°52.928 242.1 13.2 241 10.3
2011-05-09 07:37:18 51°13.859 2°52.633 235.8 13.1 235 10.3
2011-05-09 07:38:18 51°13.744 2°52.336 242.5 13.1 242 10.5
2011-05-09 07:39:18 51°13.631 2°52.039 235.6 13.2 235 10.5
2011-05-09 07:40:18 51°13.517 2°51.744 244.3 12.9 244 10.6
2011-05-09 07:41:17 51°13.426 2°51.438 246.1 13 245 10.8
2011-05-09 07:42:17 51°13.326 2°51.132 239.6 13 239 11
2011-05-09 07:43:18 51°13.219 2°50.827 245.5 13 246 11
2011-05-09 07:44:18 51°13.124 2°50.515 244.2 13.1 243 11.2
2011-05-09 07:45:17 51°13.016 2°50.219 241.8 13.1 240 11.4
2011-05-09 07:46:18 51°12.917 2°49.902 245.8 13.1 244 11.5
2011-05-09 07:47:18 51°12.819 2°49.589 242.2 13.1 240 11.7
2011-05-09 07:48:18 51°12.713 2°49.285 242.5 13.2 243 11.9
2011-05-09 07:49:17 51°12.611 2°48.982 242.1 13.2 241 12
2011-05-09 07:50:18 51°12.507 2°48.668 244.4 13.3 245 12.1
2011-05-09 07:51:17 51°12.413 2°48.356 245.1 13.3 245 12.3
2011-05-09 07:52:17 51°12.31 2°48.046 239.5 13.3 239 12.4
2011-05-09 07:53:18 51°12.203 2°47.731 243.2 13.4 243 12.5
2011-05-09 07:54:18 51°12.121 2°47.404 252.8 13.4 251 12.7
2011-05-09 07:55:18 51°12.045 2°47.074 248.1 13.2 247 12.6
2011-05-09 07:56:17 51°11.968 2°46.754 252.7 13.2 253 12.6
2011-05-09 07:57:18 51°11.898 2°46.415 251.5 13.3 250 12.7
2011-05-09 07:58:17 51°11.813 2°46.096 247.5 13.4 247 12.8
2011-05-09 07:59:17 51°11.746 2°45.759 259.6 13.3 259 12.8
2011-05-09 08:00:18 51°11.712 2°45.404 262.3 13.3 262 12.7
2011-05-09 08:01:18 51°11.665 2°45.059 256.1 13.3 256 12.7
2011-05-09 08:02:18 51°11.621 2°44.713 261.5 13.4 260 12.6
2011-05-09 08:03:17 51°11.584 2°44.37 259.9 13.3 260 12.5
2011-05-09 08:04:18 51°11.554 2°44.012 265.5 13.4 264 12.5
2011-05-09 08:05:17 51°11.538 2°43.665 267.5 13.2 266 11.9
2011-05-09 08:06:17 51°11.508 2°43.318 261.6 13.3 261 11.4
2011-05-09 08:07:18 51°11.488 2°42.962 267.9 13.3 265 11.3
2011-05-09 08:08:18 51°11.455 2°42.613 263.6 13.3 264 11
2011-05-09 08:09:17 51°11.436 2°42.268 262.8 13.2 260 11.3
2011-05-09 08:10:17 51°11.379 2°41.929 255.6 13.3 255 11.1
2011-05-09 08:11:18 51°11.308 2°41.589 247.8 13.3 245 11.7
2011-05-09 08:12:17 51°11.187 2°41.303 232.7 13.3 234 12
2011-05-09 08:13:18 51°11.062 2°41.003 238.9 13.4 239 12.5
2011-05-09 08:14:18 51°10.946 2°40.706 234.5 13.1 234 12.9
2011-05-09 08:15:18 51°10.823 2°40.419 236.3 13.2 236 13.3
2011-05-09 08:16:18 51°10.706 2°40.121 239.8 13.3 240 13.8
2011-05-09 08:17:17 51°10.59 2°39.828 234.4 13.3 235 14.3
2011-05-09 08:18:18 51°10.464 2°39.528 235.4 13.5 236 14.5
2011-05-09 08:19:18 51°10.348 2°39.224 239.8 13.5 240 14.8
2011-05-09 08:20:18 51°10.235 2°38.918 237.4 13.4 237 15.1
2011-05-09 08:21:18 51°10.108 2°38.625 235.6 13.4 236 15.2
2011-05-09 08:22:18 51°9.994 2°38.317 239.6 13.5 240 15.2
2011-05-09 08:23:18 51°9.876 2°38.012 234.1 13.6 235 15.4
2011-05-09 08:24:18 51°9.758 2°37.706 239.8 13.6 241 15.2
2011-05-09 08:25:18 51°9.64 2°37.4 233.9 13.6 235 15.3
2011-05-09 08:26:18 51°9.519 2°37.094 239.4 13.7 241 15.1
2011-05-09 08:27:16 51°9.406 2°36.791 234.9 13.7 236 15.1
2011-05-09 08:28:18 51°9.293 2°36.49 246.1 11.2 249 15.1
2011-05-09 08:29:18 51°9.276 2°36.275 273.5 6.3 270 15.4
2011-05-09 08:30:18 51°9.271 2°36.162 250.6 2.8 252 15.5
2011-05-09 08:31:18 51°9.265 2°36.126 222.9 0.7 287 15.6
2011-05-09 08:32:18 51°9.268 2°36.107 209.8 0.8 282 15.6
2011-05-09 08:33:18 51°9.27 2°36.085 207.9 0.9 273 15.6
2011-05-09 08:34:18 51°9.27 2°36.062 204 0.9 269 15.6
2011-05-09 08:35:18 51°9.269 2°36.039 200.8 1 269 15.7
2011-05-09 08:36:18 51°9.269 2°36.013 198.3 1 265 15.8
2011-05-09 08:37:18 51°9.267 2°35.988 194.5 1.1 263 15.8
2011-05-09 08:38:18 51°9.265 2°35.962 189.5 1 261 15.9
2011-05-09 08:39:18 51°9.262 2°35.936 183 1 258 15.9
2011-05-09 08:40:18 51°9.258 2°35.909 175.7 1.1 258 15.9
2011-05-09 08:41:17 51°9.255 2°35.883 168.2 1.1 256 15.9
2011-05-09 08:42:18 51°9.25 2°35.854 160.8 1.1 255 15.9
2011-05-09 08:43:18 51°9.246 2°35.825 153.6 1.1 256 15.8
2011-05-09 08:44:18 51°9.24 2°35.797 147.2 1.1 229 15.9
2011-05-09 08:45:17 51°9.199 2°35.792 163.1 4.6 181 15.7
2011-05-09 08:46:18 51°9.112 2°35.725 217.7 5.8 227 15.6
2011-05-09 08:47:18 51°9.064 2°35.617 232.8 4.6 238 15.7
2011-05-09 08:48:18 51°9.029 2°35.519 238.8 4 244 15.7
2011-05-09 08:49:18 51°9.004 2°35.429 244 3.5 247 15.7
2011-05-09 08:50:18 51°8.981 2°35.346 243.2 3.3 247 15.7
2011-05-09 08:51:17 51°8.961 2°35.27 243.4 3.1 246 15.7
2011-05-09 08:52:17 51°8.941 2°35.195 243.5 3 247 15.8
2011-05-09 08:53:17 51°8.919 2°35.119 241.9 3.4 246 15.7
2011-05-09 08:54:18 51°8.895 2°35.032 241.8 3.6 244 15.9
2011-05-09 08:55:17 51°8.869 2°34.945 240.7 3.8 244 15.8
2011-05-09 08:56:18 51°8.84 2°34.852 238.2 3.9 242 15.8
2011-05-09 08:57:18 51°8.81 2°34.76 237.2 4 242 15.9
2011-05-09 08:58:18 51°8.779 2°34.668 237.1 4 242 16.2
2011-05-09 08:59:17 51°8.748 2°34.575 238 4 242 16.3
2011-05-09 09:00:18 51°8.716 2°34.479 238.7 4.1 242 16.3
2011-05-09 09:01:17 51°8.685 2°34.386 240.1 4.1 242 16.3
2011-05-09 09:02:17 51°8.655 2°34.29 240.5 4.1 243 16.2
2011-05-09 09:03:18 51°8.624 2°34.191 241.2 4.1 244 16.2
2011-05-09 09:04:17 51°8.595 2°34.095 243.1 4.1 246 16.1
2011-05-09 09:05:18 51°8.565 2°33.996 242 4.1 244 16.2
2011-05-09 09:06:18 51°8.534 2°33.9 240.3 4.1 243 16.2
2011-05-09 09:07:17 51°8.503 2°33.806 238 4.1 241 16.2
2011-05-09 09:08:17 51°8.469 2°33.713 237.3 4.1 240 16.2
2011-05-09 09:09:18 51°8.435 2°33.618 238.3 4.1 240 16.2
2011-05-09 09:10:17 51°8.403 2°33.525 239.7 4.1 242 16.2
2011-05-09 09:11:17 51°8.372 2°33.431 241.2 4.1 242 16.3
2011-05-09 09:12:18 51°8.341 2°33.334 243.2 4 244 16
2011-05-09 09:13:18 51°8.311 2°33.239 243.3 4 244 15.8
2011-05-09 09:14:18 51°8.281 2°33.143 242.1 4 243 16.3
2011-05-09 09:15:17 51°8.25 2°33.05 239.6 4.1 242 15.9
2011-05-09 09:16:18 51°8.216 2°32.956 237.5 4.1 240 16.3
2011-05-09 09:17:18 51°8.188 2°32.858 255.8 4.1 252 16.4
2011-05-09 09:18:18 51°8.177 2°32.754 278.9 3.9 267 16.9
2011-05-09 09:19:18 51°8.182 2°32.654 297.2 3.7 281 17.4
2011-05-09 09:20:17 51°8.2 2°32.566 314.9 3.5 294 17.5
2011-05-09 09:21:18 51°8.231 2°32.489 333.7 3.3 310 17.3
2011-05-09 09:22:17 51°8.27 2°32.438 358.8 2.9 335 16.9
2011-05-09 09:23:18 51°8.324 2°32.466 54.1 5.3 56 17
2011-05-09 09:24:17 51°8.336 2°32.55 85.9 2.3 94 17.1
2011-05-09 09:25:18 51°8.331 2°32.623 81.8 4.5 83 17.4
2011-05-09 09:26:18 51°8.357 2°32.714 51.4 2.6 44 17.2
2011-05-09 09:27:17 51°8.385 2°32.732 30.3 1.5 1 17.2
2011-05-09 09:28:17 51°8.406 2°32.724 20.6 1.5 346 17.3
2011-05-09 09:29:17 51°8.461 2°32.734 24.6 4.5 14 17.5
2011-05-09 09:30:18 51°8.535 2°32.773 31.8 3.6 19 18.1
2011-05-09 09:31:17 51°8.577 2°32.782 19.1 2.1 353 18.5
2011-05-09 09:32:18 51°8.605 2°32.766 8.8 1.6 329 18.7
2011-05-09 09:33:18 51°8.63 2°32.743 9.7 2.6 351 18.7
2011-05-09 09:34:17 51°8.693 2°32.81 48.7 6.8 43 18.1
2011-05-09 09:35:17 51°8.762 2°32.876 23.4 3.5 6 17.7
2011-05-09 09:36:18 51°8.808 2°32.859 0.9 2.5 331 17.7
2011-05-09 09:37:17 51°8.836 2°32.819 347.7 2.2 310 17.8
2011-05-09 09:38:17 51°8.857 2°32.774 342.7 2.8 319 17.8
2011-05-09 09:39:18 51°8.899 2°32.808 72.1 4.7 75 17.8
2011-05-09 09:40:17 51°8.93 2°33.02 77.6 10.6 78 17.5
2011-05-09 09:41:18 51°8.964 2°33.318 80.3 11.5 81 17.3
2011-05-09 09:42:17 51°8.991 2°33.616 80.8 11.5 81 17
2011-05-09 09:43:18 51°9.032 2°33.917 77.2 11.4 77 15.9
2011-05-09 09:44:17 51°9.061 2°34.21 81.1 11.4 82 15.4
2011-05-09 09:45:18 51°9.102 2°34.509 77.9 11.4 79 15.7
2011-05-09 09:46:17 51°9.138 2°34.799 78.9 11.3 80 15.7
2011-05-09 09:47:17 51°9.166 2°35.097 81.2 11.4 81 15.2
2011-05-09 09:48:17 51°9.206 2°35.39 78.5 11.3 79 15.2
2011-05-09 09:49:18 51°9.234 2°35.692 81.4 11.3 81 15.4
2011-05-09 09:50:17 51°9.272 2°35.958 76 8 74 15.3
2011-05-09 09:51:18 51°9.316 2°36.084 52.5 3.7 41 15.4
2011-05-09 09:52:18 51°9.343 2°36.092 38.1 0.8 302 15.4
2011-05-09 09:53:18 51°9.35 2°36.072 43.8 0.8 294 15.5
2011-05-09 09:54:18 51°9.354 2°36.052 45.8 0.8 283 15.4
2011-05-09 09:55:18 51°9.357 2°36.029 46.7 0.9 274 15.4
2011-05-09 09:56:18 51°9.357 2°36.004 48.9 0.9 268 15.5
2011-05-09 09:57:18 51°9.356 2°35.978 51 1 265 15.6
2011-05-09 09:58:18 51°9.355 2°35.95 53.3 1.1 264 15.6
2011-05-09 09:59:18 51°9.352 2°35.922 56 1.1 259 15.6
2011-05-09 10:00:18 51°9.349 2°35.894 58 1.1 258 15.6
2011-05-09 10:01:18 51°9.345 2°35.865 59.8 1.1 257 15.7
2011-05-09 10:02:18 51°9.352 2°35.849 35.6 1.3 339 15.6
2011-05-09 10:03:18 51°9.38 2°35.823 4.7 2.3 326 15.6
2011-05-09 10:04:18 51°9.419 2°35.79 4.4 3 335 15.5
2011-05-09 10:05:18 51°9.472 2°35.759 5.9 3.7 343 16.3
2011-05-09 10:06:18 51°9.535 2°35.73 5 4.1 340 15.9
2011-05-09 10:07:18 51°9.585 2°35.647 311 5.1 296 17
2011-05-09 10:08:18 51°9.633 2°35.479 307.3 8.5 300 17.5
2011-05-09 10:09:18 51°9.741 2°35.308 337 9.7 329 17.7
2011-05-09 10:10:18 51°9.907 2°35.253 6.2 11.1 1 15.2
2011-05-09 10:11:18 51°10.089 2°35.343 29.8 11.5 24 10.2
2011-05-09 10:12:18 51°10.27 2°35.455 23.7 11.8 19 10.4
2011-05-09 10:13:18 51°10.44 2°35.596 38 11.4 35 9.6
2011-05-09 10:14:18 51°10.601 2°35.758 32.4 11.5 28 9.5
2011-05-09 10:15:17 51°10.763 2°35.911 39.2 11.5 36 9.8
2011-05-09 10:16:18 51°10.923 2°36.083 34.2 11.4 28 10.1
2011-05-09 10:17:18 51°11.092 2°36.224 35.7 11.4 32 10.3
2011-05-09 10:18:18 51°11.249 2°36.392 36 11.4 30 10.5
2011-05-09 10:19:18 51°11.415 2°36.539 36.3 11.4 33 10.4
2011-05-09 10:20:18 51°11.571 2°36.708 37.7 11.3 31 10.5
2011-05-09 10:21:18 51°11.737 2°36.851 34 11.3 29 10.1
2011-05-09 10:22:18 51°11.893 2°37.018 38.6 11.3 33 10.3
2011-05-09 10:23:18 51°12.061 2°37.152 30.9 11.3 26 10.3
2011-05-09 10:24:17 51°12.221 2°37.298 34.7 11.3 28 10.5
2011-05-09 10:25:18 51°12.393 2°37.431 32.3 11.3 27 10.8
2011-05-09 10:26:18 51°12.553 2°37.587 36.6 11.2 30 11.1
2011-05-09 10:27:18 51°12.722 2°37.72 32.3 11.3 27 11.7
2011-05-09 10:28:18 51°12.883 2°37.873 36.5 11.3 31 12
2011-05-09 10:29:18 51°13.052 2°38.008 31.9 11.4 25 12.6
2011-05-09 10:30:18 51°13.22 2°38.145 37 11.4 31 13
2011-05-09 10:31:18 51°13.383 2°38.299 34.7 11.5 27 13.1
2011-05-09 10:32:18 51°13.556 2°38.432 34.4 11.4 29 12.9
2011-05-09 10:33:18 51°13.72 2°38.586 35.1 11.5 28 12.4
2011-05-09 10:34:18 51°13.902 2°38.688 24.6 11.6 18 11.5
2011-05-09 10:35:18 51°14.098 2°38.686 355.1 12.4 344 12.7
2011-05-09 10:36:18 51°14.294 2°38.561 346 12.7 338 16.4
2011-05-09 10:37:18 51°14.493 2°38.447 350.3 12.7 341 16.5
2011-05-09 10:38:18 51°14.691 2°38.342 351.2 12.4 343 15.5
2011-05-09 10:39:18 51°14.888 2°38.248 350.7 12.3 340 14.8
2011-05-09 10:40:18 51°15.075 2°38.107 342.4 12.4 334 11.9
2011-05-09 10:41:18 51°15.264 2°37.977 345.4 12.4 334 10.3
2011-05-09 10:42:18 51°15.445 2°37.806 337.5 12.7 329 9.4
2011-05-09 10:43:18 51°15.633 2°37.656 344.3 12.5 334 10.3
2011-05-09 10:44:18 51°15.817 2°37.492 337.8 12.6 330 10.1
2011-05-09 10:45:18 51°16.007 2°37.346 345.1 12.7 338 11.1
2011-05-09 10:46:18 51°16.197 2°37.193 338.8 12.8 332 19.8
2011-05-09 10:47:18 51°16.388 2°37.046 343.5 12.8 332 26.2
2011-05-09 10:48:18 51°16.521 2°36.885 341.5 7.6 332 26
2011-05-09 10:49:17 51°16.601 2°36.848 12.3 2.9 343 25.8
2011-05-09 10:50:18 51°16.61 2°36.813 339.8 1.4 253 25.9
2011-05-09 10:51:18 51°16.603 2°36.779 323.8 1.4 250 25.9
2011-05-09 10:52:18 51°16.594 2°36.744 318.3 1.4 249 25.9
2011-05-09 10:53:17 51°16.586 2°36.71 317.3 1.4 247 26.1
2011-05-09 10:54:18 51°16.576 2°36.675 319.4 1.4 245 26.2
2011-05-09 10:55:18 51°16.567 2°36.642 323.5 1.4 245 26.4
2011-05-09 10:56:18 51°16.557 2°36.61 328.9 1.4 244 26
2011-05-09 10:57:18 51°16.548 2°36.578 335.9 1.3 244 26
2011-05-09 10:58:17 51°16.538 2°36.547 343.6 1.3 244 26.3
2011-05-09 10:59:18 51°16.528 2°36.516 351.3 1.3 242 26.3
2011-05-09 11:00:17 51°16.518 2°36.487 356.6 1.2 241 26.5
2011-05-09 11:01:18 51°16.507 2°36.456 0.3 1.3 238 26.2
2011-05-09 11:02:16 51°16.525 2°36.461 62.5 2.6 64 26.6
2011-05-09 11:03:18 51°16.544 2°36.567 71.2 5 71 26.1
2011-05-09 11:04:18 51°16.573 2°36.703 77.4 5.4 79 26.2
2011-05-09 11:05:17 51°16.578 2°36.798 85.3 2 99 26
2011-05-09 11:06:18 51°16.575 2°36.815 63 0.1 137 26
2011-05-09 11:07:18 51°16.574 2°36.803 41.3 0.7 263 26.1
2011-05-09 11:08:18 51°16.573 2°36.781 29.4 0.9 264 26
2011-05-09 11:09:18 51°16.57 2°36.754 21.4 1.1 258 25.9
2011-05-09 11:10:18 51°16.566 2°36.724 15.6 1.2 256 26
2011-05-09 11:11:18 51°16.562 2°36.694 12.8 1.2 256 26.2
2011-05-09 11:12:18 51°16.556 2°36.663 11.7 1.3 253 26.2
2011-05-09 11:13:18 51°16.55 2°36.631 11.4 1.3 254 26.2
2011-05-09 11:14:17 51°16.544 2°36.599 12.3 1.3 252 26.2
2011-05-09 11:15:18 51°16.536 2°36.565 15.1 1.3 250 26.3
2011-05-09 11:16:18 51°16.529 2°36.533 19 1.3 247 26.4
2011-05-09 11:17:18 51°16.52 2°36.5 22.4 1.3 248 26.4
2011-05-09 11:18:18 51°16.512 2°36.467 25.7 1.4 249 26.5
2011-05-09 11:19:17 51°16.502 2°36.434 29.2 1.4 244 26.2
2011-05-09 11:20:17 51°16.493 2°36.401 32.7 1.4 246 26.5
2011-05-09 11:21:18 51°16.483 2°36.368 36.7 1.4 244 26.8
2011-05-09 11:22:18 51°16.473 2°36.335 40.8 1.4 241 27
2011-05-09 11:23:18 51°16.463 2°36.302 44.8 1.4 244 27.3
2011-05-09 11:24:18 51°16.452 2°36.27 49.4 1.4 242 27.6
2011-05-09 11:25:17 51°16.442 2°36.237 53.9 1.4 243 27.7
2011-05-09 11:26:18 51°16.431 2°36.203 58.2 1.4 239 27.4
2011-05-09 11:27:17 51°16.42 2°36.17 62.1 1.4 242 27.5
2011-05-09 11:28:18 51°16.409 2°36.136 65.9 1.5 243 27.9
2011-05-09 11:29:18 51°16.398 2°36.102 68.4 1.4 242 28
2011-05-09 11:30:18 51°16.387 2°36.069 70 1.4 242 27.7
2011-05-09 11:31:18 51°16.375 2°36.037 71.1 1.4 239 27.1
2011-05-09 11:32:18 51°16.363 2°36.005 72.4 1.4 239 26.9
2011-05-09 11:33:18 51°16.352 2°35.974 74.4 1.4 239 27
2011-05-09 11:34:18 51°16.34 2°35.943 76 1.3 236 26.8
2011-05-09 11:35:18 51°16.329 2°35.914 77 1.3 236 26.1
2011-05-09 11:36:18 51°16.317 2°35.884 77 1.3 235 26.4
2011-05-09 11:37:18 51°16.305 2°35.854 76.8 1.3 236 26.4
2011-05-09 11:38:17 51°16.293 2°35.826 77.1 1.3 234 26.3
2011-05-09 11:39:18 51°16.281 2°35.798 76.7 1.3 235 26.6
2011-05-09 11:40:17 51°16.27 2°35.772 77 1.2 235 26.3
2011-05-09 11:41:18 51°16.257 2°35.744 77.5 1.3 234 26
2011-05-09 11:42:18 51°16.244 2°35.717 77.8 1.3 231 26.3
2011-05-09 11:43:17 51°16.233 2°35.69 78.9 1.3 235 26.5
2011-05-09 11:44:18 51°16.22 2°35.663 81.4 1.2 232 26.3
2011-05-09 11:45:17 51°16.206 2°35.636 84 1.2 232 26.3
2011-05-09 11:46:18 51°16.193 2°35.615 87.8 0.9 157 26.2
2011-05-09 11:47:16 51°16.148 2°35.662 143.3 5.7 162 26.6
2011-05-09 11:48:17 51°16.055 2°35.66 179.4 5.4 195 26.2
2011-05-09 11:49:18 51°15.976 2°35.61 191.8 4.6 205 26.3
2011-05-09 11:50:17 51°15.913 2°35.556 197.5 4.2 211 26.5
2011-05-09 11:51:18 51°15.857 2°35.496 203.4 3.9 216 26.3
2011-05-09 11:52:17 51°15.808 2°35.433 208.3 3.7 220 26.7
2011-05-09 11:53:17 51°15.763 2°35.372 210.5 3.5 221 26.6
2011-05-09 11:54:17 51°15.72 2°35.311 210.2 3.4 222 26.3
2011-05-09 11:55:18 51°15.672 2°35.248 209.1 3.7 219 26.8
2011-05-09 11:56:17 51°15.624 2°35.186 207.7 3.9 218 26.7
2011-05-09 11:57:17 51°15.572 2°35.124 206.3 3.9 217 26.2
2011-05-09 11:58:18 51°15.519 2°35.061 205 3.9 216 26.5
2011-05-09 11:59:18 51°15.468 2°34.998 204 3.9 215 26.7
2011-05-09 12:00:18 51°15.414 2°34.94 203.7 3.9 215 26.5
2011-05-09 12:01:17 51°15.361 2°34.882 204.8 3.9 216 26
2011-05-09 12:02:18 51°15.307 2°34.82 207.2 3.9 217 26.2
2011-05-09 12:03:18 51°15.255 2°34.756 208.7 4 218 26.3
2011-05-09 12:04:18 51°15.202 2°34.692 208.1 3.9 218 26.1
2011-05-09 12:05:17 51°15.151 2°34.63 208.1 3.9 217 26.4
2011-05-09 12:06:17 51°15.099 2°34.566 207.1 3.9 217 26.6
2011-05-09 12:07:17 51°15.046 2°34.505 205.1 3.9 216 27.1
2011-05-09 12:08:17 51°14.993 2°34.445 203.7 3.9 215 26.3
2011-05-09 12:09:17 51°14.938 2°34.387 203.3 3.9 214 26.4
2011-05-09 12:10:17 51°14.884 2°34.329 204.2 4 214 26.3
2011-05-09 12:11:18 51°14.829 2°34.27 205.2 3.9 213 25.9
2011-05-09 12:12:17 51°14.776 2°34.212 207.2 3.9 215 26.1
2011-05-09 12:13:18 51°14.722 2°34.15 208.5 3.9 217 26
2011-05-09 12:14:17 51°14.671 2°34.091 207.7 3.9 216 26.1
2011-05-09 12:15:18 51°14.618 2°34.031 207.5 3.9 216 25.5
2011-05-09 12:16:18 51°14.565 2°33.969 207.6 3.9 217 25.7
2011-05-09 12:17:18 51°14.514 2°33.908 207.4 3.9 217 25.5
2011-05-09 12:18:18 51°14.463 2°33.849 205.6 3.8 215 25.5
2011-05-09 12:19:17 51°14.411 2°33.792 204.2 3.8 214 25.3
2011-05-09 12:20:18 51°14.359 2°33.731 214.3 3.8 222 25.1
2011-05-09 12:21:17 51°14.322 2°33.655 241.8 3.6 239 25.1
2011-05-09 12:22:17 51°14.297 2°33.568 259.8 3.6 252 24.6
2011-05-09 12:23:17 51°14.285 2°33.477 277.4 3.5 264 25.1
2011-05-09 12:24:17 51°14.284 2°33.388 295 3.3 275 25.1
2011-05-09 12:25:16 51°14.295 2°33.307 313.2 3 288 25.1
2011-05-09 12:26:18 51°14.322 2°33.24 347.7 3 322 25.2
2011-05-09 12:27:18 51°14.351 2°33.208 5.9 1.6 324 25.1
2011-05-09 12:28:17 51°14.367 2°33.185 13.3 1.1 312 24.9
2011-05-09 12:29:18 51°14.377 2°33.163 12.1 0.9 296 24.9
2011-05-09 12:30:17 51°14.381 2°33.14 6.2 1 279 24.9
2011-05-09 12:31:17 51°14.385 2°33.115 7.3 1.1 312 25
2011-05-09 12:32:17 51°14.413 2°33.122 45.8 2.6 44 25
2011-05-09 12:33:17 51°14.413 2°33.222 105.9 4.9 120 25.2
2011-05-09 12:34:17 51°14.35 2°33.294 143.4 4.6 162 25.2
2011-05-09 12:35:18 51°14.274 2°33.304 170.7 4.6 187 25.2
2011-05-09 12:36:18 51°14.201 2°33.27 192 4.4 202 25.1
2011-05-09 12:37:17 51°14.136 2°33.225 192.3 4.1 203 25.7
2011-05-09 12:38:17 51°14.074 2°33.184 191.3 4 203 25
2011-05-09 12:39:18 51°14.014 2°33.14 196.1 3.9 206 25.2
2011-05-09 12:40:18 51°13.956 2°33.091 199.6 3.9 209 25.3
2011-05-09 12:41:17 51°13.901 2°33.042 199.3 3.9 209 25
2011-05-09 12:42:18 51°13.845 2°32.991 199.6 3.8 210 25.2
2011-05-09 12:43:18 51°13.79 2°32.938 199.8 3.9 213 25.3
2011-05-09 12:44:18 51°13.737 2°32.883 197.3 3.7 212 24.9
2011-05-09 12:45:17 51°13.684 2°32.833 193.6 3.8 210 25.1
2011-05-09 12:46:17 51°13.63 2°32.784 193 3.8 209 24.9
2011-05-09 12:47:17 51°13.575 2°32.736 194.3 3.8 209 25
2011-05-09 12:48:18 51°13.52 2°32.685 195.7 3.8 210 25.1
2011-05-09 12:49:18 51°13.466 2°32.635 196.2 3.7 210 25.1
2011-05-09 12:50:17 51°13.412 2°32.585 198 3.8 212 25
2011-05-09 12:51:17 51°13.36 2°32.53 205 3.8 216 25.1
2011-05-09 12:52:17 51°13.309 2°32.465 211.4 4 221 25.1
2011-05-09 12:53:17 51°13.259 2°32.394 215.8 4.1 224 25.2
2011-05-09 12:54:17 51°13.213 2°32.315 224.9 4.1 230 25.1
2011-05-09 12:55:18 51°13.17 2°32.229 229.4 4 232 25.3
2011-05-09 12:56:18 51°13.13 2°32.142 233.1 4.1 236 25.4
2011-05-09 12:57:17 51°13.094 2°32.053 237.4 4 238 25.1
2011-05-09 12:58:17 51°13.06 2°31.962 238.1 4.1 238 24.9
2011-05-09 12:59:17 51°13.024 2°31.871 237.1 4 238 25.1
2011-05-09 13:00:18 51°12.987 2°31.779 236.1 4.1 237 25.2
2011-05-09 13:01:17 51°12.951 2°31.692 234.5 4 236 24.5
2011-05-09 13:02:18 51°12.913 2°31.603 233.1 4 234 24.7
2011-05-09 13:03:17 51°12.874 2°31.519 232.1 4 234 24.7
2011-05-09 13:04:17 51°12.842 2°31.428 254.3 3.9 253 24.6
2011-05-09 13:05:18 51°12.836 2°31.33 282.8 3.6 272 25.6
2011-05-09 13:06:18 51°12.845 2°31.238 294.4 3.5 282 24.7
2011-05-09 13:07:17 51°12.862 2°31.152 305.9 3.4 293 24.8
2011-05-09 13:08:18 51°12.892 2°31.082 333 3 316 24.2
2011-05-09 13:09:18 51°12.936 2°31.05 4.4 3.2 352 24.6
2011-05-09 13:10:17 51°12.984 2°31.071 41.1 2.9 36 24.2
2011-05-09 13:11:17 51°13.007 2°31.135 76.8 3 83 24.6
2011-05-09 13:12:17 51°13.002 2°31.218 94.7 2.8 103 24.9
2011-05-09 13:13:17 51°12.989 2°31.274 106 1.9 121 24.6
2011-05-09 13:14:18 51°12.971 2°31.307 115.5 1.4 140 24.9
2011-05-09 13:15:17 51°12.953 2°31.325 121.5 1.2 158 25.1
2011-05-09 13:16:17 51°12.937 2°31.334 129.1 1 170 25.2
2011-05-09 13:17:17 51°12.921 2°31.336 137.4 0.9 183 25.7
2011-05-09 13:18:18 51°12.906 2°31.334 146.7 1 190 25.6
2011-05-09 13:19:18 51°12.884 2°31.336 148.2 2.7 159 25.8
2011-05-09 13:20:17 51°12.845 2°31.426 97.3 6 98 25
2011-05-09 13:21:18 51°12.878 2°31.629 68.8 9.2 67 25
2011-05-09 13:22:18 51°12.95 2°31.879 68.3 11 68 24.7
2011-05-09 13:23:18 51°13.004 2°32.173 77.7 11.8 78 24.3
2011-05-09 13:24:17 51°13.053 2°32.47 73.4 11.8 72 24.5
2011-05-09 13:25:18 51°13.141 2°32.755 61.2 11.8 59 25.1
2011-05-09 13:26:18 51°13.255 2°33.012 57 12 56 24.7
2011-05-09 13:27:17 51°13.359 2°33.275 59.8 11.9 57 24.6
2011-05-09 13:28:17 51°13.444 2°33.557 77.7 11.9 78 24.6
2011-05-09 13:29:17 51°13.474 2°33.87 79.9 12 78 23.1
2011-05-09 13:30:18 51°13.524 2°34.182 76.5 11.9 76 19.2
2011-05-09 13:31:17 51°13.578 2°34.483 72 12 71 15
2011-05-09 13:32:18 51°13.635 2°34.793 77 12.1 77 13.8
2011-05-09 13:33:17 51°13.685 2°35.099 72.8 12.2 73 15.5
2011-05-09 13:34:18 51°13.74 2°35.417 77.2 12.3 78 16.6
2011-05-09 13:35:17 51°13.779 2°35.729 76.2 12.2 76 17.2
2011-05-09 13:36:17 51°13.835 2°36.039 73.3 12.2 75 18
2011-05-09 13:37:17 51°13.879 2°36.354 77.5 12.1 78 18.5
2011-05-09 13:38:17 51°13.929 2°36.663 74.2 12 75 19.3
2011-05-09 13:39:18 51°13.966 2°36.98 79.9 11.9 81 20.3
2011-05-09 13:40:17 51°13.998 2°37.285 78.3 11.8 79 21.4
2011-05-09 13:41:17 51°14.044 2°37.589 74.7 11.8 76 21.7
2011-05-09 13:42:17 51°14.08 2°37.898 79.9 11.8 82 19.8
2011-05-09 13:43:17 51°14.121 2°38.205 74.3 11.8 76 19.3
2011-05-09 13:44:18 51°14.159 2°38.52 80.2 12 81 17.8
2011-05-09 13:45:18 51°14.196 2°38.832 74.4 11.9 76 14.4
2011-05-09 13:46:17 51°14.233 2°39.141 79.9 12.1 82 12.4
2011-05-09 13:47:17 51°14.248 2°39.465 84.9 12.3 86 14.3
2011-05-09 13:48:18 51°14.277 2°39.794 81.2 12.4 83 14.6
2011-05-09 13:49:17 51°14.286 2°40.118 88.2 12.5 88 13.1
2011-05-09 13:50:18 51°14.293 2°40.455 86.7 12.5 87 15.4
2011-05-09 13:51:17 51°14.316 2°40.779 83.1 12.5 84 15.7
2011-05-09 13:52:17 51°14.324 2°41.11 87.2 12.5 88 15.8
2011-05-09 13:53:17 51°14.336 2°41.439 85.2 12.4 86 15.8
2011-05-09 13:54:17 51°14.358 2°41.767 83.5 12.4 84 17.2
2011-05-09 13:55:18 51°14.373 2°42.103 86.6 12.5 88 18.6
2011-05-09 13:56:18 51°14.382 2°42.432 85.3 12.4 85 18.7
2011-05-09 13:57:18 51°14.404 2°42.759 85 12.4 86 18.8
2011-05-09 13:58:18 51°14.415 2°43.086 87.9 12.3 88 18.6
2011-05-09 13:59:18 51°14.432 2°43.412 82.8 12.3 82 17.8
2011-05-09 14:00:18 51°14.457 2°43.735 86.6 12.3 86 17.5
2011-05-09 14:01:17 51°14.471 2°44.058 84.9 12.4 84 16.6
2011-05-09 14:02:18 51°14.5 2°44.391 83.6 12.5 83 15.5
2011-05-09 14:03:18 51°14.512 2°44.721 87.9 12.4 88 14.1
2011-05-09 14:04:18 51°14.533 2°45.049 81.7 12.4 81 12.6
2011-05-09 14:05:18 51°14.551 2°45.376 88 12.4 88 10.9
2011-05-09 14:06:18 51°14.568 2°45.703 81.7 12.4 81 10.1
2011-05-09 14:07:18 51°14.589 2°46.031 87 12.5 87 11.3
2011-05-09 14:08:18 51°14.605 2°46.36 83.3 12.4 81 13.2
2011-05-09 14:09:18 51°14.632 2°46.688 85 12.5 86 14.6
2011-05-09 14:10:18 51°14.644 2°47.021 86.7 12.7 85 14.7
2011-05-09 14:11:17 51°14.661 2°47.351 85.4 12.7 84 14.2
2011-05-09 14:12:18 51°14.692 2°47.687 84.1 12.6 83 13.4
2011-05-09 14:13:18 51°14.707 2°48.021 87.9 12.6 87 13.1
2011-05-09 14:14:18 51°14.725 2°48.354 83.4 12.6 82 13.7
2011-05-09 14:15:17 51°14.752 2°48.678 86.2 12.6 85 14
2011-05-09 14:16:18 51°14.766 2°49.015 85.9 12.5 85 14.2
2011-05-09 14:17:18 51°14.793 2°49.341 82.8 12.4 82 14.3
2011-05-09 14:18:18 51°14.809 2°49.67 87.7 12.5 86 14.1
2011-05-09 14:19:18 51°14.834 2°49.996 82.9 12.4 83 14.1
2011-05-09 14:20:17 51°14.851 2°50.32 88.1 12.5 87 13.9
2011-05-09 14:21:18 51°14.873 2°50.657 83.6 12.6 84 13.7
2011-05-09 14:22:17 51°14.872 2°50.984 94.7 12.5 94 13.2
2011-05-09 14:23:18 51°14.869 2°51.321 88 12.5 88 13.1
2011-05-09 14:24:17 51°14.865 2°51.647 94 12.5 93 12.7
2011-05-09 14:25:17 51°14.859 2°51.98 90.7 12.5 88 12.3
2011-05-09 14:26:18 51°14.862 2°52.317 93.3 12.4 94 12.1
2011-05-09 14:27:17 51°14.849 2°52.641 93.7 12.5 92 11.7
2011-05-09 14:28:18 51°14.845 2°52.98 94.2 12.6 93 11.8
2011-05-09 14:29:17 51°14.83 2°53.307 95 12.6 92 11.6
2011-05-09 14:30:18 51°14.831 2°53.65 93.4 12.7 91 11.3
2011-05-09 14:31:18 51°14.802 2°53.982 102.5 12.7 101 11.3
2011-05-09 14:32:18 51°14.764 2°54.308 103.9 12.3 101 11.8
2011-05-09 14:33:18 51°14.695 2°54.616 119 12.4 116 12.8
2011-05-09 14:34:17 51°14.592 2°54.891 129.2 12.2 125 13.3
2011-05-09 14:35:18 51°14.444 2°55.1 145.9 10.2 145 12.7
2011-05-09 14:36:17 51°14.336 2°55.212 147.4 6.7 146 12
2011-05-09 14:37:18 51°14.232 2°55.316 148.9 7.8 149 12.4
2011-05-09 14:38:18 51°14.112 2°55.417 154.3 8.3 153 -999
2011-05-09 14:39:17 51°14 2°55.498 155.4 6.7 156 12.6
2011-05-09 14:40:18 51°13.901 2°55.568 156.6 6.2 155 12.7
2011-05-09 14:41:17 51°13.811 2°55.638 150.6 6 149 13
2011-05-09 14:42:18 51°13.737 2°55.741 131.5 5.4 131 12.6
2011-05-09 14:43:17 51°13.693 2°55.835 122.6 3.9 121 12
2011-05-09 14:44:17 51°13.671 2°55.92 108.9 3 108 10.5
2011-05-09 14:45:17 51°13.662 2°55.957 124 0.4 142 9.8
2011-05-09 14:46:21 51°13.661 2°55.96 121.2 0.1 34 9.6